Time;durP1;ratioP1;P1;durP2;ratioP2;P2;SDS_P1;SDS_P2;PMS_P1;PMS_P2;Temp;Humidity;BMP_temperature;BMP_pressure;BME280_temperature;BME280_humidity;BME280_pressure;Samples;Min_cycle;Max_cycle;Signal;HPM_P1;HPM_P2
2023/11/16 00:00:34;;;;;;;6.65;2.30;;;10.80;99.90;;;;;;5046661;28;20029;-59
2023/11/16 00:03:02;;;;;;;6.25;2.30;;;10.70;99.90;;;;;;5044392;28;20041;-60
2023/11/16 00:05:27;;;;;;;4.43;2.35;;;10.70;99.90;;;;;;5047603;28;20030;-60
2023/11/16 00:07:54;;;;;;;5.68;2.35;;;10.70;99.90;;;;;;5048819;28;20030;-60
2023/11/16 00:10:20;;;;;;;4.32;2.08;;;10.70;99.90;;;;;;5048828;28;20032;-60
2023/11/16 00:12:46;;;;;;;5.32;2.20;;;10.70;99.90;;;;;;5043302;28;20041;-60
2023/11/16 00:15:12;;;;;;;4.43;2.25;;;10.70;99.90;;;;;;5048544;28;20079;-59
2023/11/16 00:17:37;;;;;;;4.20;2.00;;;10.70;99.90;;;;;;5048678;28;20554;-59
2023/11/16 00:20:07;;;;;;;4.20;2.05;;;10.70;99.90;;;;;;5029583;28;20030;-60
2023/11/16 00:22:33;;;;;;;4.65;2.00;;;10.70;99.90;;;;;;5045611;28;20079;-59
2023/11/16 00:24:58;;;;;;;4.35;2.15;;;10.70;99.90;;;;;;5048198;28;20029;-60
2023/11/16 00:27:25;;;;;;;3.65;2.15;;;10.60;99.90;;;;;;5047146;28;20029;-59
2023/11/16 00:29:54;;;;;;;5.65;1.98;;;10.60;99.90;;;;;;5041639;28;20034;-60
2023/11/16 00:32:20;;;;;;;4.97;2.17;;;10.60;99.90;;;;;;5048392;28;20030;-60
2023/11/16 00:34:45;;;;;;;3.35;1.85;;;10.60;99.90;;;;;;5047059;28;20059;-60
2023/11/16 00:37:11;;;;;;;3.35;1.70;;;10.60;99.90;;;;;;5047094;28;20484;-60
2023/11/16 00:39:38;;;;;;;8.90;2.08;;;10.60;99.90;;;;;;5042455;28;20025;-60
2023/11/16 00:42:05;;;;;;;4.10;1.80;;;10.60;99.90;;;;;;5047048;28;20034;-60
2023/11/16 00:44:30;;;;;;;4.90;2.30;;;10.60;99.90;;;;;;5046912;28;20471;-60
2023/11/16 00:46:57;;;;;;;3.75;1.85;;;10.60;99.90;;;;;;5046848;28;20040;-60
2023/11/16 00:49:23;;;;;;;2.88;1.73;;;10.50;99.90;;;;;;5040956;28;20056;-60
2023/11/16 00:51:49;;;;;;;3.17;1.80;;;10.50;99.90;;;;;;5046866;28;20371;-59
2023/11/16 00:54:15;;;;;;;2.95;1.98;;;10.50;99.90;;;;;;5046725;28;20022;-59
2023/11/16 00:56:41;;;;;;;4.60;1.65;;;10.50;99.90;;;;;;5045686;28;20024;-60
2023/11/16 00:59:07;;;;;;;3.75;1.65;;;10.50;99.90;;;;;;5042244;28;20037;-60
2023/11/16 01:01:33;;;;;;;3.25;2.03;;;10.50;99.90;;;;;;5046638;28;20037;-59
2023/11/16 01:04:00;;;;;;;7.20;2.28;;;10.50;99.90;;;;;;5047844;28;20072;-60
2023/11/16 01:06:26;;;;;;;3.30;1.90;;;10.50;99.90;;;;;;5043252;28;20037;-59
2023/11/16 01:08:52;;;;;;;3.38;1.83;;;10.50;99.90;;;;;;5046612;28;20030;-60
2023/11/16 01:11:25;;;;;;;4.57;2.20;;;10.50;99.90;;;;;;5047469;28;20045;-60
2023/11/16 01:13:50;;;;;;;4.85;1.95;;;10.50;99.90;;;;;;5046368;28;20091;-60
2023/11/16 01:16:17;;;;;;;2.92;1.75;;;10.40;99.90;;;;;;5040688;28;20474;-60
2023/11/16 01:18:48;;;;;;;4.05;1.80;;;10.50;99.90;;;;;;5047649;28;20079;-60
2023/11/16 01:21:14;;;;;;;5.00;1.90;;;10.40;99.90;;;;;;5030449;28;20025;-59
2023/11/16 01:23:39;;;;;;;2.88;1.55;;;10.50;99.90;;;;;;5046104;28;20048;-59
2023/11/16 01:26:13;;;;;;;4.20;2.05;;;10.40;99.90;;;;;;5041002;28;20124;-59
2023/11/16 01:28:45;;;;;;;3.78;1.98;;;10.40;99.90;;;;;;5047511;28;20473;-59
2023/11/16 01:31:12;;;;;;;4.70;1.83;;;10.40;99.90;;;;;;5046690;28;20033;-60
2023/11/16 01:33:38;;;;;;;3.92;1.77;;;10.40;99.90;;;;;;5044345;28;20037;-59
2023/11/16 01:36:04;;;;;;;3.88;1.98;;;10.30;99.90;;;;;;5062548;28;20178;-59
2023/11/16 01:38:30;;;;;;;3.35;1.70;;;10.40;99.90;;;;;;5045844;28;20040;-59
2023/11/16 01:40:57;;;;;;;4.85;2.00;;;10.30;99.90;;;;;;5046108;28;20030;-60
2023/11/16 01:43:23;;;;;;;5.15;2.10;;;10.30;99.90;;;;;;5039745;28;20021;-59
2023/11/16 01:45:48;;;;;;;4.13;1.67;;;10.30;99.90;;;;;;5046923;28;20063;-59
2023/11/16 01:48:18;;;;;;;3.50;1.70;;;10.40;99.90;;;;;;5045427;28;20036;-59
2023/11/16 01:50:43;;;;;;;3.72;1.80;;;10.40;99.90;;;;;;5045712;28;20026;-60
2023/11/16 01:53:10;;;;;;;4.82;2.15;;;10.30;99.90;;;;;;5027316;28;20056;-60
2023/11/16 01:55:37;;;;;;;3.47;1.65;;;10.30;99.90;;;;;;5045629;28;20106;-59
2023/11/16 01:58:04;;;;;;;2.60;1.63;;;10.30;99.90;;;;;;5046699;28;20030;-59
2023/11/16 02:00:30;;;;;;;1.95;1.40;;;10.30;99.90;;;;;;5043596;28;20336;-59
2023/11/16 02:02:58;;;;;;;2.95;1.92;;;10.30;99.90;;;;;;5058378;28;20029;-60
2023/11/16 02:05:23;;;;;;;3.00;1.75;;;10.30;99.90;;;;;;5045433;28;20089;-59
2023/11/16 02:07:49;;;;;;;4.38;1.98;;;10.30;99.90;;;;;;5045529;28;20037;-60
2023/11/16 02:10:14;;;;;;;4.05;1.80;;;10.30;99.90;;;;;;5039509;28;20026;-60
2023/11/16 02:12:50;;;;;;;4.03;2.00;;;10.30;99.90;;;;;;5045258;28;20049;-59
2023/11/16 02:15:15;;;;;;;3.30;1.77;;;10.30;99.90;;;;;;5046737;28;20083;-59
2023/11/16 02:17:41;;;;;;;4.13;1.75;;;10.20;99.90;;;;;;5046403;28;20033;-60
2023/11/16 02:20:07;;;;;;;2.88;1.70;;;10.20;99.90;;;;;;5039553;28;20038;-59
2023/11/16 02:22:33;;;;;;;3.65;1.63;;;10.20;99.90;;;;;;5045127;28;20044;-60
2023/11/16 02:24:58;;;;;;;5.25;1.70;;;10.20;99.90;;;;;;5044509;28;20037;-60
2023/11/16 02:27:24;;;;;;;6.00;2.17;;;10.20;99.90;;;;;;5046341;28;20470;-59
2023/11/16 02:29:50;;;;;;;4.03;1.98;;;10.20;99.90;;;;;;5041001;28;20040;-59
2023/11/16 02:32:17;;;;;;;3.85;2.20;;;10.20;99.90;;;;;;5045071;28;20034;-60
2023/11/16 02:34:43;;;;;;;2.83;1.75;;;10.20;99.90;;;;;;5046234;28;20034;-60
2023/11/16 02:37:08;;;;;;;5.25;2.20;;;10.20;99.90;;;;;;5043864;28;20029;-60
2023/11/16 02:39:34;;;;;;;3.20;1.70;;;10.20;99.90;;;;;;5043683;28;20504;-59
2023/11/16 02:41:59;;;;;;;5.85;2.17;;;10.20;99.90;;;;;;5046253;28;20034;-60
2023/11/16 02:44:25;;;;;;;2.63;1.65;;;10.20;99.90;;;;;;5046201;28;20044;-59
2023/11/16 02:46:50;;;;;;;3.47;1.65;;;10.20;99.90;;;;;;5042639;28;20486;-59
2023/11/16 02:49:16;;;;;;;6.70;1.92;;;10.20;99.90;;;;;;5044721;28;20418;-60
2023/11/16 02:51:41;;;;;;;3.30;1.65;;;10.20;99.90;;;;;;5046078;28;20040;-60
2023/11/16 02:54:07;;;;;;;3.53;1.88;;;10.20;99.90;;;;;;5044842;28;20056;-59
2023/11/16 02:56:33;;;;;;;4.82;1.80;;;10.20;99.90;;;;;;5039564;28;20381;-60
2023/11/16 02:58:59;;;;;;;2.00;1.45;;;10.20;99.90;;;;;;5045972;28;20033;-59
2023/11/16 03:01:25;;;;;;;3.80;1.58;;;10.20;99.90;;;;;;5045803;28;20029;-60
2023/11/16 03:03:51;;;;;;;4.30;1.90;;;10.10;99.90;;;;;;5045953;28;20038;-59
2023/11/16 03:06:16;;;;;;;4.40;1.70;;;10.10;99.90;;;;;;5040507;28;20040;-59
2023/11/16 03:08:42;;;;;;;2.70;1.50;;;10.10;99.90;;;;;;5044646;28;20037;-59
2023/11/16 03:11:08;;;;;;;3.05;1.38;;;10.10;99.90;;;;;;5045871;28;20056;-60
2023/11/16 03:13:34;;;;;;;3.65;1.70;;;10.10;99.90;;;;;;5041322;28;20030;-59
2023/11/16 03:16:04;;;;;;;3.28;1.70;;;10.10;99.90;;;;;;5044311;28;20037;-60
2023/11/16 03:18:29;;;;;;;3.40;1.60;;;10.10;99.90;;;;;;5045860;28;20022;-60
2023/11/16 03:20:55;;;;;;;3.75;1.48;;;10.10;99.90;;;;;;5044544;28;20105;-60
2023/11/16 03:23:21;;;;;;;5.95;1.80;;;10.10;99.90;;;;;;5040098;28;20025;-59
2023/11/16 03:25:47;;;;;;;4.80;1.70;;;10.10;99.90;;;;;;5044393;28;20037;-59
2023/11/16 03:28:12;;;;;;;3.20;1.70;;;10.10;99.90;;;;;;5044491;28;20152;-60
2023/11/16 03:30:38;;;;;;;6.30;2.05;;;10.10;99.90;;;;;;5044594;28;20033;-59
2023/11/16 03:33:08;;;;;;;2.40;1.60;;;10.10;99.90;;;;;;5042408;28;20471;-60
2023/11/16 03:35:33;;;;;;;2.55;1.45;;;10.00;99.90;;;;;;5046474;28;20474;-60
2023/11/16 03:37:59;;;;;;;3.67;1.80;;;10.00;99.90;;;;;;5048098;28;20033;-59
2023/11/16 03:40:24;;;;;;;3.88;1.70;;;10.10;99.90;;;;;;5047364;28;20041;-60
2023/11/16 03:42:50;;;;;;;3.78;1.65;;;10.00;99.90;;;;;;5042931;28;20049;-60
2023/11/16 03:45:15;;;;;;;2.88;1.70;;;10.00;99.90;;;;;;5049344;28;20105;-59
2023/11/16 03:47:41;;;;;;;2.65;1.50;;;10.00;99.90;;;;;;5048021;28;20038;-59
2023/11/16 03:50:09;;;;;;;3.38;1.65;;;10.00;99.90;;;;;;5045321;28;20038;-59
2023/11/16 03:52:34;;;;;;;5.43;1.65;;;10.00;99.90;;;;;;5047697;28;20071;-59
2023/11/16 03:55:00;;;;;;;3.50;1.48;;;10.00;99.90;;;;;;5048996;28;20064;-59
2023/11/16 03:57:26;;;;;;;4.35;1.77;;;9.90;99.90;;;;;;5049073;28;20502;-60
2023/11/16 03:59:51;;;;;;;3.33;1.98;;;10.00;99.90;;;;;;5043744;28;20021;-60
2023/11/16 04:02:17;;;;;;;2.45;1.30;;;9.90;99.90;;;;;;5047786;28;20040;-60
2023/11/16 04:04:42;;;;;;;5.70;1.92;;;9.90;99.90;;;;;;5048959;28;20416;-60
2023/11/16 04:07:08;;;;;;;2.13;1.35;;;9.90;99.90;;;;;;5047696;28;20068;-60
2023/11/16 04:09:36;;;;;;;2.08;1.60;;;9.90;99.90;;;;;;5041775;28;20044;-59
2023/11/16 04:12:02;;;;;;;2.30;1.33;;;9.90;99.90;;;;;;5031037;28;20026;-59
2023/11/16 04:14:28;;;;;;;4.03;1.60;;;9.90;99.90;;;;;;5048477;28;20053;-60
2023/11/16 04:16:53;;;;;;;3.15;1.80;;;9.90;99.90;;;;;;5047379;28;20026;-60
2023/11/16 04:19:20;;;;;;;3.33;1.38;;;9.90;99.90;;;;;;5043148;28;20017;-59
2023/11/16 04:21:46;;;;;;;4.47;1.50;;;9.90;99.90;;;;;;5046497;28;20159;-59
2023/11/16 04:24:13;;;;;;;4.75;1.85;;;9.80;99.90;;;;;;5046182;28;20029;-59
2023/11/16 04:26:39;;;;;;;4.10;1.55;;;9.80;99.90;;;;;;5045034;28;20030;-59
2023/11/16 04:29:05;;;;;;;3.08;1.40;;;9.80;99.90;;;;;;5045556;28;20056;-60
2023/11/16 04:31:31;;;;;;;3.22;1.50;;;9.80;99.90;;;;;;5046656;28;20039;-59
2023/11/16 04:33:57;;;;;;;2.65;1.35;;;9.70;99.90;;;;;;5046392;28;20021;-60
2023/11/16 04:36:23;;;;;;;2.58;1.48;;;9.80;99.90;;;;;;5041252;28;20102;-59
2023/11/16 04:38:55;;;;;;;4.50;1.40;;;9.70;99.90;;;;;;5048186;28;20029;-60
2023/11/16 04:41:24;;;;;;;2.47;1.45;;;9.80;99.90;;;;;;5047125;28;20040;-59
2023/11/16 04:43:49;;;;;;;4.55;1.58;;;9.70;99.90;;;;;;5046910;28;20034;-60
2023/11/16 04:46:16;;;;;;;2.47;1.40;;;9.70;99.90;;;;;;5040924;28;20045;-59
2023/11/16 04:48:43;;;;;;;3.05;1.40;;;9.70;99.90;;;;;;5046699;28;20398;-59
2023/11/16 04:51:09;;;;;;;3.35;1.40;;;9.70;99.90;;;;;;5046953;28;20032;-59
2023/11/16 04:53:36;;;;;;;3.42;1.65;;;9.70;99.90;;;;;;5045331;28;20029;-49
2023/11/16 04:56:02;;;;;;;3.53;1.48;;;9.70;99.90;;;;;;5046315;28;20038;-50
2023/11/16 04:58:28;;;;;;;5.30;1.70;;;9.70;99.90;;;;;;5047712;28;20052;-49
2023/11/16 05:00:53;;;;;;;2.40;1.52;;;9.70;99.90;;;;;;5046554;28;20444;-50
2023/11/16 05:03:21;;;;;;;4.43;1.38;;;9.60;99.90;;;;;;5040662;28;20033;-50
2023/11/16 05:05:47;;;;;;;2.75;1.60;;;9.60;99.90;;;;;;5046417;28;20035;-50
2023/11/16 05:08:13;;;;;;;3.05;1.30;;;9.60;99.90;;;;;;5047891;28;20114;-50
2023/11/16 05:10:39;;;;;;;3.03;1.60;;;9.60;99.90;;;;;;5047688;28;20108;-49
2023/11/16 05:13:05;;;;;;;2.17;1.40;;;9.60;99.90;;;;;;5041952;28;20022;-49
2023/11/16 05:15:30;;;;;;;4.15;1.75;;;9.60;99.90;;;;;;5047488;28;20251;-50
2023/11/16 05:17:56;;;;;;;2.45;1.40;;;9.60;99.90;;;;;;5047202;28;20057;-50
2023/11/16 05:20:21;;;;;;;2.47;1.58;;;9.50;99.90;;;;;;5029622;28;20021;-50
2023/11/16 05:22:49;;;;;;;2.08;1.40;;;9.50;99.90;;;;;;5028558;28;20405;-49
2023/11/16 05:25:15;;;;;;;1.90;1.17;;;9.50;99.90;;;;;;5045990;28;20052;-50
2023/11/16 05:27:40;;;;;;;2.67;1.15;;;9.50;99.90;;;;;;5047368;28;20032;-50
2023/11/16 05:30:07;;;;;;;1.77;1.17;;;9.50;99.90;;;;;;5045856;28;20033;-49
2023/11/16 05:32:33;;;;;;;4.43;1.30;;;9.50;99.90;;;;;;5075112;28;20032;-50
2023/11/16 05:34:59;;;;;;;2.60;1.67;;;9.50;99.90;;;;;;5045773;28;20451;-50
2023/11/16 05:37:24;;;;;;;2.78;1.45;;;9.50;99.90;;;;;;5047163;28;20030;-50
2023/11/16 05:39:50;;;;;;;2.47;1.10;;;9.50;99.90;;;;;;5042613;28;20091;-50
2023/11/16 05:42:15;;;;;;;3.15;1.77;;;9.40;99.90;;;;;;5027403;28;20068;-49
2023/11/16 05:44:41;;;;;;;2.47;1.52;;;9.40;99.90;;;;;;5027264;28;20038;-49
2023/11/16 05:47:07;;;;;;;2.65;1.48;;;9.40;99.90;;;;;;5027156;28;20030;-50
2023/11/16 05:49:32;;;;;;;2.13;1.20;;;9.40;99.90;;;;;;5030940;28;20047;-50
2023/11/16 05:51:58;;;;;;;3.92;1.60;;;9.40;99.90;;;;;;5046831;28;20026;-50
2023/11/16 05:54:23;;;;;;;4.03;1.27;;;9.40;99.90;;;;;;5028985;28;20120;-49
2023/11/16 05:56:50;;;;;;;2.03;1.25;;;9.40;99.90;;;;;;5045605;28;20056;-49
2023/11/16 05:59:16;;;;;;;2.28;1.20;;;9.40;99.90;;;;;;5042621;28;20029;-49
2023/11/16 06:01:45;;;;;;;2.63;1.25;;;9.30;99.90;;;;;;5045587;28;20048;-49
2023/11/16 06:04:10;;;;;;;2.85;1.65;;;9.40;99.90;;;;;;5046396;28;20398;-49
2023/11/16 06:06:36;;;;;;;3.78;1.50;;;9.30;99.90;;;;;;5043997;28;20116;-49
2023/11/16 06:09:03;;;;;;;2.30;1.35;;;9.30;99.90;;;;;;5041349;28;20033;-49
2023/11/16 06:11:28;;;;;;;2.22;1.33;;;9.50;99.90;;;;;;5044378;28;20473;-49
2023/11/16 06:13:55;;;;;;;3.45;1.33;;;9.30;99.90;;;;;;5044180;28;20085;-50
2023/11/16 06:16:24;;;;;;;4.75;1.60;;;9.30;99.90;;;;;;5039900;28;20033;-50
2023/11/16 06:18:49;;;;;;;2.67;1.42;;;9.30;99.90;;;;;;5044897;28;20025;-50
2023/11/16 06:21:15;;;;;;;2.78;1.45;;;9.30;99.90;;;;;;5044754;28;20079;-49
2023/11/16 06:23:41;;;;;;;3.03;1.40;;;9.30;99.90;;;;;;5044722;28;20053;-50
2023/11/16 06:26:06;;;;;;;2.97;1.40;;;9.30;99.90;;;;;;5039224;28;20088;-49
2023/11/16 06:28:32;;;;;;;2.33;1.50;;;9.30;99.90;;;;;;5027410;28;20032;-50
2023/11/16 06:30:58;;;;;;;3.50;1.45;;;9.20;99.90;;;;;;5043978;28;20029;-50
2023/11/16 06:33:23;;;;;;;2.40;1.55;;;9.20;99.90;;;;;;5044999;28;20025;-50
2023/11/16 06:35:49;;;;;;;3.65;1.42;;;9.20;99.90;;;;;;5041643;28;20504;-50
2023/11/16 06:38:16;;;;;;;2.90;1.58;;;9.20;99.90;;;;;;5046118;28;20081;-50
2023/11/16 06:40:41;;;;;;;4.75;1.45;;;9.20;99.90;;;;;;5046204;28;20097;-50
2023/11/16 06:43:10;;;;;;;4.18;1.75;;;9.20;99.90;;;;;;5043831;28;20377;-50
2023/11/16 06:45:40;;;;;;;4.53;1.60;;;9.20;99.90;;;;;;5042650;28;20040;-50
2023/11/16 06:48:06;;;;;;;2.33;1.50;;;9.10;99.90;;;;;;5045076;28;20040;-50
2023/11/16 06:50:33;;;;;;;3.60;1.38;;;9.20;99.90;;;;;;5044571;28;20029;-50
2023/11/16 06:53:05;;;;;;;5.03;1.38;;;9.20;99.90;;;;;;5040700;28;20479;-50
2023/11/16 06:55:32;;;;;;;2.67;1.83;;;9.10;99.90;;;;;;5029104;28;20093;-50
2023/11/16 06:57:58;;;;;;;8.55;1.60;;;9.10;99.90;;;;;;5040326;28;20576;-49
2023/11/16 07:00:25;;;;;;;6.60;1.40;;;9.10;99.90;;;;;;5064644;28;20033;-50
2023/11/16 07:02:51;;;;;;;6.72;2.53;;;9.10;99.90;;;;;;5062070;28;20034;-50
2023/11/16 07:05:17;;;;;;;12.25;2.67;;;9.10;99.90;;;;;;5063615;28;20040;-49
2023/11/16 07:07:45;;;;;;;7.47;4.68;;;9.10;99.90;;;;;;5050187;28;20033;-50
2023/11/16 07:10:10;;;;;;;25.80;9.93;;;9.20;99.90;;;;;;5047252;28;20028;-50
2023/11/16 07:12:40;;;;;;;18.50;8.35;;;9.20;99.90;;;;;;5044768;28;20137;-50
2023/11/16 07:15:06;;;;;;;12.20;7.07;;;9.20;99.90;;;;;;5066506;28;20021;-49
2023/11/16 07:17:32;;;;;;;25.52;13.85;;;9.20;99.90;;;;;;5030043;28;20036;-50
2023/11/16 07:19:58;;;;;;;40.10;12.38;;;9.20;99.90;;;;;;5037685;28;20093;-50
2023/11/16 07:22:25;;;;;;;77.38;11.88;;;9.20;99.90;;;;;;5066115;28;20037;-50
2023/11/16 07:24:51;;;;;;;39.03;9.45;;;9.20;99.90;;;;;;5047531;28;20030;-50
2023/11/16 07:27:16;;;;;;;64.70;10.23;;;9.20;99.90;;;;;;5028119;28;20048;-50
2023/11/16 07:29:45;;;;;;;47.70;9.82;;;9.20;99.90;;;;;;5044255;28;20113;-49
2023/11/16 07:32:11;;;;;;;48.97;10.18;;;9.20;99.90;;;;;;5047377;28;20045;-50
2023/11/16 07:34:43;;;;;;;83.25;11.00;;;9.20;99.90;;;;;;5063389;28;20054;-50
2023/11/16 07:37:09;;;;;;;89.43;10.95;;;9.30;99.90;;;;;;5048020;28;20026;-50
2023/11/16 07:39:35;;;;;;;73.10;11.68;;;9.30;99.90;;;;;;5057864;28;20108;-50
2023/11/16 07:42:01;;;;;;;86.93;13.93;;;9.30;99.90;;;;;;5067213;28;20029;-50
2023/11/16 07:44:27;;;;;;;114.78;15.70;;;9.20;99.90;;;;;;5046921;28;20517;-49
2023/11/16 07:46:53;;;;;;;100.45;12.60;;;9.30;99.90;;;;;;5043497;28;20033;-50
2023/11/16 07:49:18;;;;;;;93.85;13.68;;;9.30;99.90;;;;;;5045941;28;20041;-50
2023/11/16 07:51:45;;;;;;;84.28;12.32;;;9.30;99.90;;;;;;5031170;28;20057;-50
2023/11/16 07:54:15;;;;;;;64.55;8.90;;;9.30;99.90;;;;;;5046934;28;20102;-50
2023/11/16 07:56:51;;;;;;;95.82;13.80;;;9.30;99.90;;;;;;5041911;28;20038;-49
2023/11/16 07:59:25;;;;;;;104.00;12.20;;;9.30;99.90;;;;;;5042803;28;20048;-50
2023/11/16 08:01:55;;;;;;;110.57;14.23;;;9.40;99.90;;;;;;5057083;28;20025;-50
2023/11/16 08:04:25;;;;;;;228.48;20.50;;;9.40;99.90;;;;;;5042458;28;20025;-50
2023/11/16 08:06:54;;;;;;;123.50;14.23;;;9.40;99.90;;;;;;5053503;28;20033;-50
2023/11/16 08:09:24;;;;;;;94.80;11.90;;;9.40;99.90;;;;;;5048798;28;20018;-50
2023/11/16 08:11:53;;;;;;;110.57;14.55;;;9.40;99.90;;;;;;5062670;28;20043;-49
2023/11/16 08:14:25;;;;;;;152.15;16.15;;;9.50;99.90;;;;;;5053944;28;20025;-50
2023/11/16 08:16:55;;;;;;;137.93;15.50;;;9.50;99.90;;;;;;5043885;28;20404;-49
2023/11/16 08:19:21;;;;;;;147.45;19.08;;;9.40;99.90;;;;;;5046345;28;20032;-50
2023/11/16 08:21:46;;;;;;;164.27;21.00;;;9.50;99.90;;;;;;5043222;28;20049;-50
2023/11/16 08:24:15;;;;;;;155.63;20.48;;;9.50;99.90;;;;;;5054370;28;20032;-50
2023/11/16 08:26:43;;;;;;;195.38;24.70;;;9.50;99.90;;;;;;5045655;28;20083;-49
2023/11/16 08:29:09;;;;;;;192.85;22.10;;;9.50;99.90;;;;;;5045925;28;20116;-50
2023/11/16 08:31:34;;;;;;;126.93;16.50;;;9.50;99.90;;;;;;5009394;23;20047;-94
2023/11/16 08:34:00;;;;;;;168.35;18.73;;;9.80;99.90;;;;;;4984127;28;20067;-96
2023/11/16 08:36:26;;;;;;;225.32;22.77;;;9.90;99.90;;;;;;4975522;28;20030;-94
2023/11/16 08:38:52;;;;;;;129.70;15.73;;;9.80;99.90;;;;;;4988745;28;20458;-92
2023/11/16 08:41:18;;;;;;;215.88;22.17;;;10.10;99.90;;;;;;4991264;28;20022;-92
2023/11/16 08:43:44;;;;;;;127.90;16.80;;;9.80;99.90;;;;;;5016160;28;20035;-96
2023/11/16 08:46:20;;;;;;;130.02;14.82;;;10.00;99.90;;;;;;5001578;28;20038;-96
2023/11/16 08:48:48;;;;;;;108.25;14.38;;;9.70;99.90;;;;;;4977412;28;20557;-96
2023/11/16 08:51:16;;;;;;;117.90;14.60;;;9.70;99.90;;;;;;4989547;28;20117;-95
2023/11/16 08:53:46;;;;;;;159.27;17.35;;;9.80;99.90;;;;;;5001423;28;20121;-94
2023/11/16 08:56:11;;;;;;;105.20;14.38;;;9.70;99.90;;;;;;4986573;28;20302;-95
2023/11/16 08:58:39;;;;;;;94.00;12.65;;;9.70;99.90;;;;;;4976009;28;20070;-94
2023/11/16 09:01:05;;;;;;;102.65;12.02;;;9.70;99.90;;;;;;4971535;28;20031;-94
2023/11/16 09:03:33;;;;;;;136.55;15.90;;;9.80;99.90;;;;;;4981390;28;20023;-96
2023/11/16 09:06:06;;;;;;;94.68;13.18;;;10.20;99.90;;;;;;4986143;28;20030;-95
2023/11/16 09:08:37;;;;;;;124.32;15.63;;;9.80;99.90;;;;;;5007307;28;20041;-93
2023/11/16 09:11:07;;;;;;;203.88;23.38;;;9.90;99.90;;;;;;4996966;28;20041;-95
2023/11/16 09:13:33;;;;;;;118.65;16.33;;;9.80;99.90;;;;;;5005106;28;20030;-94
2023/11/16 09:15:58;;;;;;;151.50;17.33;;;10.10;99.90;;;;;;4986134;28;20057;-95
2023/11/16 09:18:25;;;;;;;213.88;24.52;;;9.80;99.90;;;;;;4987235;28;20030;-96
2023/11/16 09:20:51;;;;;;;155.52;18.23;;;10.30;99.90;;;;;;4970315;28;20065;-94
2023/11/16 09:23:17;;;;;;;137.65;18.17;;;9.90;99.90;;;;;;4978748;28;20042;-94
2023/11/16 09:25:43;;;;;;;141.13;16.55;;;10.00;99.90;;;;;;4977615;28;20066;-94
2023/11/16 09:28:11;;;;;;;137.95;16.30;;;10.00;99.90;;;;;;5005693;28;20038;-94
2023/11/16 09:30:39;;;;;;;92.95;15.60;;;10.10;99.90;;;;;;4980478;28;20027;-95
2023/11/16 09:33:08;;;;;;;123.70;15.48;;;10.20;99.90;;;;;;4975639;28;20027;-95
2023/11/16 09:35:34;;;;;;;114.65;15.68;;;9.90;99.90;;;;;;4998875;28;20035;-92
2023/11/16 09:38:06;;;;;;;110.50;15.07;;;9.80;99.90;;;;;;4975347;28;20031;-94
2023/11/16 09:40:32;;;;;;;91.35;15.32;;;9.90;99.90;;;;;;4973268;28;20194;-94
2023/11/16 09:42:58;;;;;;;85.88;13.40;;;10.00;99.90;;;;;;4970039;28;20079;-96
2023/11/16 09:45:27;;;;;;;94.88;14.73;;;10.00;99.90;;;;;;4977896;28;20038;-96
2023/11/16 09:48:00;;;;;;;97.45;14.43;;;10.10;99.90;;;;;;4980260;28;20030;-94
2023/11/16 09:50:27;;;;;;;95.45;12.77;;;10.00;99.90;;;;;;4968651;28;20039;-94
2023/11/16 09:53:03;;;;;;;97.55;13.98;;;10.10;99.90;;;;;;4981385;28;20090;-95
2023/11/16 09:55:30;;;;;;;;;;;9.90;99.90;;;;;;4971191;28;20026;-95
2023/11/16 09:58:08;;;;;;;92.82;13.05;;;10.00;99.90;;;;;;4988988;28;19925;-96
2023/11/16 10:00:36;;;;;;;119.95;15.85;;;10.10;99.90;;;;;;4987844;28;20042;-96
2023/11/16 10:03:05;;;;;;;110.63;13.73;;;10.10;99.90;;;;;;4969149;28;20023;-95
2023/11/16 10:05:34;;;;;;;94.63;12.73;;;10.00;99.90;;;;;;4983051;28;20026;-96
2023/11/16 10:08:01;;;;;;;87.90;13.35;;;10.00;99.90;;;;;;5000230;28;20062;-95
2023/11/16 10:10:31;;;;;;;96.05;12.88;;;10.00;99.90;;;;;;4966984;28;20069;-93
2023/11/16 10:12:57;;;;;;;90.10;13.23;;;10.00;99.90;;;;;;4987141;28;20164;-93
2023/11/16 10:15:24;;;;;;;114.65;14.77;;;10.50;99.90;;;;;;5003112;28;20134;-93
2023/11/16 10:17:50;;;;;;;114.50;14.07;;;10.30;99.90;;;;;;4979778;28;20046;-94
2023/11/16 10:20:16;;;;;;;96.38;13.85;;;10.30;99.90;;;;;;4984966;28;20068;-94
2023/11/16 10:22:45;;;;;;;109.63;14.10;;;10.10;99.90;;;;;;4985725;28;20034;-94
2023/11/16 10:25:14;;;;;;;119.43;13.27;;;10.20;99.90;;;;;;4987225;28;20038;-93
2023/11/16 10:27:41;;;;;;;94.18;14.50;;;10.10;99.90;;;;;;4980920;28;20031;-93
2023/11/16 10:30:12;;;;;;;143.02;15.02;;;10.50;99.90;;;;;;4989701;28;20030;-95
2023/11/16 10:32:49;;;;;;;162.32;20.10;;;10.20;99.90;;;;;;4970762;28;20042;-95
2023/11/16 10:35:15;;;;;;;181.57;20.17;;;10.10;99.90;;;;;;4989602;28;20073;-93
2023/11/16 10:37:41;;;;;;;152.70;18.50;;;10.20;99.90;;;;;;4968060;28;20401;-93
2023/11/16 10:40:17;;;;;;;162.32;20.25;;;10.20;99.90;;;;;;5021670;28;20050;-95
2023/11/16 10:42:43;;;;;;;147.63;17.67;;;10.20;99.90;;;;;;4991179;28;20034;-93
2023/11/16 10:45:14;;;;;;;113.68;15.20;;;10.40;99.90;;;;;;4996458;28;20042;-95
2023/11/16 10:47:44;;;;;;;127.13;18.77;;;10.30;99.90;;;;;;4993485;28;20134;-95
2023/11/16 10:50:16;;;;;;;165.48;24.45;;;10.30;99.90;;;;;;5024259;28;20031;-95
2023/11/16 10:52:46;;;;;;;182.73;26.35;;;10.30;99.90;;;;;;4987416;28;20439;-94
2023/11/16 10:55:21;;;;;;;166.70;22.50;;;10.50;99.90;;;;;;5008567;28;20421;-94
2023/11/16 10:57:52;;;;;;;147.00;21.00;;;10.60;99.90;;;;;;4974850;28;20034;-92
2023/11/16 11:00:17;;;;;;;145.52;20.02;;;10.50;99.90;;;;;;5012927;28;20095;-94
2023/11/16 11:02:49;;;;;;;130.15;20.20;;;10.80;99.90;;;;;;4995495;28;20310;-93
2023/11/16 11:05:22;;;;;;;120.45;18.73;;;10.50;99.90;;;;;;4989508;28;20034;-95
2023/11/16 11:07:53;;;;;;;110.97;17.88;;;10.70;99.90;;;;;;5000070;28;20022;-95
2023/11/16 11:10:27;;;;;;;109.13;18.55;;;10.90;99.90;;;;;;4980725;28;20039;-94
2023/11/16 11:13:00;;;;;;;86.88;16.88;;;10.50;99.90;;;;;;5015312;28;20101;-95
2023/11/16 11:15:34;;;;;;;73.18;13.95;;;10.50;99.90;;;;;;5016644;28;20026;-94
2023/11/16 11:18:00;;;;;;;75.65;14.15;;;10.60;99.90;;;;;;4987960;28;20019;-95
2023/11/16 11:20:33;;;;;;;76.43;14.30;;;10.80;99.90;;;;;;4975257;28;20038;-94
2023/11/16 11:23:12;;;;;;;69.38;13.38;;;10.60;99.90;;;;;;4968457;28;20038;-93
2023/11/16 11:25:38;;;;;;;47.00;12.05;;;10.60;99.90;;;;;;4980254;28;20058;-95
2023/11/16 11:28:05;;;;;;;60.30;10.25;;;10.80;99.90;;;;;;4985811;28;20121;-96
2023/11/16 11:30:32;;;;;;;53.83;11.27;;;10.50;99.90;;;;;;5005750;28;20034;-94
2023/11/16 11:33:05;;;;;;;57.33;10.43;;;10.80;99.90;;;;;;4983883;28;20031;-94
2023/11/16 11:35:35;;;;;;;48.17;9.48;;;10.60;99.90;;;;;;4989364;28;20031;-93
2023/11/16 11:38:02;;;;;;;47.58;9.10;;;10.60;99.90;;;;;;4999771;28;20062;-93
2023/11/16 11:40:29;;;;;;;54.40;12.02;;;10.70;99.90;;;;;;4985583;28;20031;-93
2023/11/16 11:42:54;;;;;;;67.40;18.98;;;10.60;99.90;;;;;;4968647;28;20118;-94
2023/11/16 11:45:20;;;;;;;80.70;20.02;;;10.70;99.90;;;;;;4996106;28;20094;-93
2023/11/16 11:47:49;;;;;;;82.20;16.38;;;10.60;99.90;;;;;;4967464;28;20027;-93
2023/11/16 11:50:19;;;;;;;81.05;14.75;;;10.60;99.90;;;;;;5015006;28;20038;-93
2023/11/16 11:52:47;;;;;;;76.45;14.13;;;10.60;99.90;;;;;;5002062;28;20067;-92
2023/11/16 11:55:14;;;;;;;90.65;13.43;;;10.60;99.90;;;;;;4975623;28;20118;-93
2023/11/16 11:57:41;;;;;;;96.90;14.55;;;10.70;99.90;;;;;;4983343;28;20054;-93
2023/11/16 12:00:10;;;;;;;149.48;14.57;;;10.70;99.70;;;;;;4970862;28;20042;-93
2023/11/16 12:02:37;;;;;;;49.92;10.75;;;10.70;99.60;;;;;;4987948;28;20137;-93
2023/11/16 12:05:13;;;;;;;72.25;10.60;;;10.70;99.50;;;;;;4987570;28;20125;-94
2023/11/16 12:07:39;;;;;;;74.97;9.90;;;10.70;99.50;;;;;;4987233;28;20090;-94
2023/11/16 12:10:05;;;;;;;71.15;9.77;;;10.70;99.60;;;;;;4988628;28;20043;-94
2023/11/16 12:12:30;;;;;;;74.45;12.00;;;10.70;99.50;;;;;;5016871;28;20119;-92
2023/11/16 12:14:57;;;;;;;96.03;12.68;;;10.70;99.60;;;;;;5001089;28;20054;-93
2023/11/16 12:17:23;;;;;;;84.10;11.52;;;10.80;99.60;;;;;;4969827;28;20046;-92
2023/11/16 12:19:48;;;;;;;65.05;10.00;;;10.70;99.50;;;;;;5001935;28;20050;-94
2023/11/16 12:22:15;;;;;;;123.03;13.52;;;10.70;99.90;;;;;;5001234;28;20038;-93
2023/11/16 12:24:41;;;;;;;85.63;11.85;;;10.80;99.70;;;;;;5017580;28;20040;-93
2023/11/16 12:27:07;;;;;;;86.72;10.07;;;10.70;99.70;;;;;;5002657;28;20142;-94
2023/11/16 12:29:33;;;;;;;58.70;8.82;;;10.80;99.80;;;;;;4987435;28;20063;-89
2023/11/16 12:31:59;;;;;;;92.85;13.15;;;10.80;99.90;;;;;;4996518;28;20031;-93
2023/11/16 12:34:25;;;;;;;87.07;10.50;;;10.80;99.90;;;;;;5000153;28;20057;-92
2023/11/16 12:36:54;;;;;;;92.80;11.90;;;10.70;99.90;;;;;;4987872;28;20022;-92
2023/11/16 12:39:25;;;;;;;111.72;12.88;;;10.80;99.90;;;;;;5002715;28;20383;-92